sensor_id;sensor_type;location;lat;lon;timestamp;pressure;altitude;pressure_sealevel;temperature;humidity
80749;BME280;70145;53.746;9.970;2023-06-10T00:01:38;101647.97;;;15.95;53.45
80749;BME280;70145;53.746;9.970;2023-06-10T00:04:03;101649.84;;;15.94;53.26
80749;BME280;70145;53.746;9.970;2023-06-10T00:06:29;101654.38;;;15.94;53.06
80749;BME280;70145;53.746;9.970;2023-06-10T00:09:04;101658.22;;;15.91;53.38
80749;BME280;70145;53.746;9.970;2023-06-10T00:11:33;101651.94;;;15.91;53.18
80749;BME280;70145;53.746;9.970;2023-06-10T00:13:59;101652.06;;;15.89;53.08
80749;BME280;70145;53.746;9.970;2023-06-10T00:16:24;101654.16;;;15.86;53.05
80749;BME280;70145;53.746;9.970;2023-06-10T00:18:50;101656.00;;;15.85;53.09
80749;BME280;70145;53.746;9.970;2023-06-10T00:21:16;101652.56;;;15.83;52.88
80749;BME280;70145;53.746;9.970;2023-06-10T00:23:42;101660.81;;;15.82;52.98
80749;BME280;70145;53.746;9.970;2023-06-10T00:26:07;101650.25;;;15.79;53.16
80749;BME280;70145;53.746;9.970;2023-06-10T00:28:33;101645.09;;;15.76;53.21
80749;BME280;70145;53.746;9.970;2023-06-10T00:30:58;101632.66;;;15.73;53.22
80749;BME280;70145;53.746;9.970;2023-06-10T00:33:23;101641.91;;;15.71;53.13
80749;BME280;70145;53.746;9.970;2023-06-10T00:35:49;101646.59;;;15.69;52.70
80749;BME280;70145;53.746;9.970;2023-06-10T00:38:14;101639.47;;;15.68;52.93
80749;BME280;70145;53.746;9.970;2023-06-10T00:40:40;101647.84;;;15.65;53.09
80749;BME280;70145;53.746;9.970;2023-06-10T00:43:06;101645.38;;;15.62;53.02
80749;BME280;70145;53.746;9.970;2023-06-10T00:45:31;101642.81;;;15.60;53.01
80749;BME280;70145;53.746;9.970;2023-06-10T00:47:57;101647.63;;;15.57;52.81
80749;BME280;70145;53.746;9.970;2023-06-10T00:50:23;101651.31;;;15.56;52.76
80749;BME280;70145;53.746;9.970;2023-06-10T00:52:48;101649.59;;;15.55;52.78
80749;BME280;70145;53.746;9.970;2023-06-10T00:55:16;101652.56;;;15.52;52.56
80749;BME280;70145;53.746;9.970;2023-06-10T00:57:42;101658.09;;;15.50;52.41
80749;BME280;70145;53.746;9.970;2023-06-10T01:00:10;101646.63;;;15.47;52.79
80749;BME280;70145;53.746;9.970;2023-06-10T01:02:36;101655.03;;;15.44;52.67
80749;BME280;70145;53.746;9.970;2023-06-10T01:05:01;101656.25;;;15.40;52.53
80749;BME280;70145;53.746;9.970;2023-06-10T01:10:24;101654.16;;;15.32;52.46
80749;BME280;70145;53.746;9.970;2023-06-10T01:13:00;101654.78;;;15.25;52.10
80749;BME280;70145;53.746;9.970;2023-06-10T01:15:29;101656.63;;;15.24;52.43
80749;BME280;70145;53.746;9.970;2023-06-10T01:18:02;101648.88;;;15.20;52.40
80749;BME280;70145;53.746;9.970;2023-06-10T01:20:30;101650.00;;;15.17;52.42
80749;BME280;70145;53.746;9.970;2023-06-10T01:22:57;101650.25;;;15.14;52.38
80749;BME280;70145;53.746;9.970;2023-06-10T01:25:24;101649.63;;;15.11;52.33
80749;BME280;70145;53.746;9.970;2023-06-10T01:28:03;101651.72;;;15.07;52.37
80749;BME280;70145;53.746;9.970;2023-06-10T01:30:34;101653.81;;;15.04;52.21
80749;BME280;70145;53.746;9.970;2023-06-10T01:33:03;101657.75;;;15.00;52.12
80749;BME280;70145;53.746;9.970;2023-06-10T01:35:32;101657.00;;;14.98;51.92
80749;BME280;70145;53.746;9.970;2023-06-10T01:37:58;101659.94;;;14.95;52.04
80749;BME280;70145;53.746;9.970;2023-06-10T01:40:25;101661.06;;;14.92;51.97
80749;BME280;70145;53.746;9.970;2023-06-10T01:42:51;101667.47;;;14.91;51.85
80749;BME280;70145;53.746;9.970;2023-06-10T01:45:17;101667.59;;;14.90;51.73
80749;BME280;70145;53.746;9.970;2023-06-10T01:47:42;101665.00;;;14.88;51.56
80749;BME280;70145;53.746;9.970;2023-06-10T01:50:08;101670.41;;;14.88;51.60
80749;BME280;70145;53.746;9.970;2023-06-10T01:52:33;101667.81;;;14.87;51.53
80749;BME280;70145;53.746;9.970;2023-06-10T01:54:59;101660.72;;;14.86;51.60
80749;BME280;70145;53.746;9.970;2023-06-10T01:57:24;101656.16;;;14.86;51.40
80749;BME280;70145;53.746;9.970;2023-06-10T01:59:49;101657.13;;;14.85;51.33
80749;BME280;70145;53.746;9.970;2023-06-10T02:02:15;101657.25;;;14.84;51.43
80749;BME280;70145;53.746;9.970;2023-06-10T02:04:40;101654.56;;;14.84;51.66
80749;BME280;70145;53.746;9.970;2023-06-10T02:07:06;101654.69;;;14.82;51.40
80749;BME280;70145;53.746;9.970;2023-06-10T02:09:31;101659.34;;;14.80;51.47
80749;BME280;70145;53.746;9.970;2023-06-10T02:11:57;101656.63;;;14.80;51.46
80749;BME280;70145;53.746;9.970;2023-06-10T02:14:23;101651.34;;;14.79;51.22
80749;BME280;70145;53.746;9.970;2023-06-10T02:16:48;101652.44;;;14.76;50.79
80749;BME280;70145;53.746;9.970;2023-06-10T02:19:13;101647.16;;;14.75;51.01
80749;BME280;70145;53.746;9.970;2023-06-10T02:21:39;101649.16;;;14.73;50.87
80749;BME280;70145;53.746;9.970;2023-06-10T02:24:05;101655.63;;;14.70;51.01
80749;BME280;70145;53.746;9.970;2023-06-10T02:26:30;101651.34;;;14.68;50.83
80749;BME280;70145;53.746;9.970;2023-06-10T02:28:56;101660.56;;;14.65;50.85
80749;BME280;70145;53.746;9.970;2023-06-10T02:31:22;101655.53;;;14.61;50.87
80749;BME280;70145;53.746;9.970;2023-06-10T02:33:48;101648.66;;;14.57;51.00
80749;BME280;70145;53.746;9.970;2023-06-10T02:36:13;101651.59;;;14.54;50.77
80749;BME280;70145;53.746;9.970;2023-06-10T02:38:40;101646.53;;;14.49;50.90
80749;BME280;70145;53.746;9.970;2023-06-10T02:41:06;101653.06;;;14.47;51.04
80749;BME280;70145;53.746;9.970;2023-06-10T02:43:31;101651.53;;;14.43;50.95
80749;BME280;70145;53.746;9.970;2023-06-10T02:45:56;101665.16;;;14.41;51.03
80749;BME280;70145;53.746;9.970;2023-06-10T02:48:23;101659.16;;;14.38;50.83
80749;BME280;70145;53.746;9.970;2023-06-10T02:50:49;101649.44;;;14.35;50.87
80749;BME280;70145;53.746;9.970;2023-06-10T02:53:14;101656.03;;;14.31;50.90
80749;BME280;70145;53.746;9.970;2023-06-10T02:55:40;101652.72;;;14.28;50.96
80749;BME280;70145;53.746;9.970;2023-06-10T02:58:06;101658.34;;;14.25;51.26
80749;BME280;70145;53.746;9.970;2023-06-10T03:00:36;101658.59;;;14.22;51.11
80749;BME280;70145;53.746;9.970;2023-06-10T03:03:03;101653.44;;;14.19;51.19
80749;BME280;70145;53.746;9.970;2023-06-10T03:05:32;101653.53;;;14.17;51.25
80749;BME280;70145;53.746;9.970;2023-06-10T03:07:57;101656.34;;;14.16;51.38
80749;BME280;70145;53.746;9.970;2023-06-10T03:10:22;101656.59;;;14.13;51.17
80749;BME280;70145;53.746;9.970;2023-06-10T03:12:48;101656.81;;;14.09;51.36
80749;BME280;70145;53.746;9.970;2023-06-10T03:15:13;101665.91;;;14.08;51.04
80749;BME280;70145;53.746;9.970;2023-06-10T03:17:39;101663.44;;;14.05;51.04
80749;BME280;70145;53.746;9.970;2023-06-10T03:20:05;101660.00;;;14.03;51.30
80749;BME280;70145;53.746;9.970;2023-06-10T03:22:31;101660.22;;;14.00;50.87
80749;BME280;70145;53.746;9.970;2023-06-10T03:24:56;101660.44;;;13.97;51.11
80749;BME280;70145;53.746;9.970;2023-06-10T03:27:22;101661.56;;;13.95;51.13
80749;BME280;70145;53.746;9.970;2023-06-10T03:29:47;101668.06;;;13.92;50.99
80749;BME280;70145;53.746;9.970;2023-06-10T03:32:13;101682.78;;;13.88;51.09
80749;BME280;70145;53.746;9.970;2023-06-10T03:34:38;101680.19;;;13.87;51.17
80749;BME280;70145;53.746;9.970;2023-06-10T03:37:04;101674.16;;;13.83;51.02
80749;BME280;70145;53.746;9.970;2023-06-10T03:39:30;101672.53;;;13.81;51.05
80749;BME280;70145;53.746;9.970;2023-06-10T03:41:55;101667.38;;;13.78;51.16
80749;BME280;70145;53.746;9.970;2023-06-10T03:44:22;101675.59;;;13.76;51.19
80749;BME280;70145;53.746;9.970;2023-06-10T03:46:47;101667.72;;;13.73;51.31
80749;BME280;70145;53.746;9.970;2023-06-10T03:49:12;101664.25;;;13.71;51.33
80749;BME280;70145;53.746;9.970;2023-06-10T03:51:40;101661.66;;;13.70;51.26
80749;BME280;70145;53.746;9.970;2023-06-10T03:54:05;101667.22;;;13.68;51.33
80749;BME280;70145;53.746;9.970;2023-06-10T03:56:31;101666.34;;;13.68;51.55
80749;BME280;70145;53.746;9.970;2023-06-10T03:58:56;101673.69;;;13.66;51.46
80749;BME280;70145;53.746;9.970;2023-06-10T04:01:22;101676.50;;;13.64;51.45
80749;BME280;70145;53.746;9.970;2023-06-10T04:03:48;101674.91;;;13.62;51.64
80749;BME280;70145;53.746;9.970;2023-06-10T04:06:15;101683.09;;;13.60;51.62
80749;BME280;70145;53.746;9.970;2023-06-10T04:08:41;101683.09;;;13.60;51.59
80749;BME280;70145;53.746;9.970;2023-06-10T04:11:08;101679.63;;;13.58;51.79
80749;BME280;70145;53.746;9.970;2023-06-10T04:13:33;101677.06;;;13.57;52.01
80749;BME280;70145;53.746;9.970;2023-06-10T04:15:58;101681.63;;;13.56;52.24
80749;BME280;70145;53.746;9.970;2023-06-10T04:18:24;101673.63;;;13.55;52.48
80749;BME280;70145;53.746;9.970;2023-06-10T04:20:50;101675.44;;;13.54;52.83
80749;BME280;70145;53.746;9.970;2023-06-10T04:23:15;101669.09;;;13.55;53.15
80749;BME280;70145;53.746;9.970;2023-06-10T04:25:40;101671.81;;;13.55;53.48
80749;BME280;70145;53.746;9.970;2023-06-10T04:28:06;101677.94;;;13.57;54.04
80749;BME280;70145;53.746;9.970;2023-06-10T04:30:31;101678.69;;;13.59;54.41
80749;BME280;70145;53.746;9.970;2023-06-10T04:32:57;101673.28;;;13.59;54.71
80749;BME280;70145;53.746;9.970;2023-06-10T04:35:22;101681.16;;;13.62;55.10
80749;BME280;70145;53.746;9.970;2023-06-10T04:37:47;101676.50;;;13.64;55.04
80749;BME280;70145;53.746;9.970;2023-06-10T04:40:13;101677.25;;;13.66;55.08
80749;BME280;70145;53.746;9.970;2023-06-10T04:42:38;101668.94;;;13.69;55.40
80749;BME280;70145;53.746;9.970;2023-06-10T04:45:04;101672.34;;;13.71;55.68
80749;BME280;70145;53.746;9.970;2023-06-10T04:47:29;101671.19;;;13.75;55.97
80749;BME280;70145;53.746;9.970;2023-06-10T04:49:58;101669.19;;;13.77;56.33
80749;BME280;70145;53.746;9.970;2023-06-10T04:52:23;101666.28;;;13.80;56.40
80749;BME280;70145;53.746;9.970;2023-06-10T04:54:49;101666.81;;;13.85;56.30
80749;BME280;70145;53.746;9.970;2023-06-10T04:57:15;101665.47;;;13.91;56.69
80749;BME280;70145;53.746;9.970;2023-06-10T04:59:40;101665.25;;;13.94;57.32
80749;BME280;70145;53.746;9.970;2023-06-10T05:02:05;101663.16;;;13.97;57.05
80749;BME280;70145;53.746;9.970;2023-06-10T05:04:31;101657.28;;;14.03;57.43
80749;BME280;70145;53.746;9.970;2023-06-10T05:06:56;101658.81;;;14.08;57.38
80749;BME280;70145;53.746;9.970;2023-06-10T05:09:21;101658.41;;;14.12;57.82
80749;BME280;70145;53.746;9.970;2023-06-10T05:11:46;101654.41;;;14.18;57.65
80749;BME280;70145;53.746;9.970;2023-06-10T05:14:12;101665.81;;;14.21;58.57
80749;BME280;70145;53.746;9.970;2023-06-10T05:16:37;101658.13;;;14.28;58.26
80749;BME280;70145;53.746;9.970;2023-06-10T05:19:04;101657.66;;;14.34;58.76
80749;BME280;70145;53.746;9.970;2023-06-10T05:21:29;101658.06;;;14.40;58.84
80749;BME280;70145;53.746;9.970;2023-06-10T05:23:54;101661.41;;;14.44;58.64
80749;BME280;70145;53.746;9.970;2023-06-10T05:26:20;101663.63;;;14.50;58.94
80749;BME280;70145;53.746;9.970;2023-06-10T05:28:45;101669.38;;;14.56;58.92
80749;BME280;70145;53.746;9.970;2023-06-10T05:31:10;101667.81;;;14.65;59.03
80749;BME280;70145;53.746;9.970;2023-06-10T05:33:36;101671.84;;;14.70;58.93
80749;BME280;70145;53.746;9.970;2023-06-10T05:36:01;101659.56;;;14.77;58.82
80749;BME280;70145;53.746;9.970;2023-06-10T05:38:27;101670.03;;;14.82;58.65
80749;BME280;70145;53.746;9.970;2023-06-10T05:40:52;101669.78;;;14.85;58.54
80749;BME280;70145;53.746;9.970;2023-06-10T05:43:17;101674.47;;;14.94;58.48
80749;BME280;70145;53.746;9.970;2023-06-10T05:45:42;101665.88;;;15.00;58.41
80749;BME280;70145;53.746;9.970;2023-06-10T05:48:08;101673.50;;;15.06;58.16
80749;BME280;70145;53.746;9.970;2023-06-10T05:50:34;101665.59;;;15.14;57.91
80749;BME280;70145;53.746;9.970;2023-06-10T05:53:03;101667.69;;;15.21;57.78
80749;BME280;70145;53.746;9.970;2023-06-10T05:55:29;101667.34;;;15.26;58.09
80749;BME280;70145;53.746;9.970;2023-06-10T05:58:00;101661.31;;;15.33;57.95
80749;BME280;70145;53.746;9.970;2023-06-10T06:00:26;101658.00;;;15.41;58.09
80749;BME280;70145;53.746;9.970;2023-06-10T06:02:52;101665.59;;;15.47;57.88
80749;BME280;70145;53.746;9.970;2023-06-10T06:05:17;101660.66;;;15.52;57.47
80749;BME280;70145;53.746;9.970;2023-06-10T06:07:43;101660.16;;;15.58;57.49
80749;BME280;70145;53.746;9.970;2023-06-10T06:10:08;101659.78;;;15.62;57.35
80749;BME280;70145;53.746;9.970;2023-06-10T06:12:34;101655.44;;;15.71;57.07
80749;BME280;70145;53.746;9.970;2023-06-10T06:14:59;101654.31;;;15.73;57.05
80749;BME280;70145;53.746;9.970;2023-06-10T06:17:24;101663.19;;;15.75;57.31
80749;BME280;70145;53.746;9.970;2023-06-10T06:19:50;101642.59;;;15.84;57.06
80749;BME280;70145;53.746;9.970;2023-06-10T06:22:15;101651.94;;;15.91;56.84
80749;BME280;70145;53.746;9.970;2023-06-10T06:24:44;101658.66;;;15.96;56.56
80749;BME280;70145;53.746;9.970;2023-06-10T06:27:10;101653.88;;;16.00;56.58
80749;BME280;70145;53.746;9.970;2023-06-10T06:29:35;101648.91;;;16.05;56.60
80749;BME280;70145;53.746;9.970;2023-06-10T06:32:00;101651.59;;;16.05;56.34
80749;BME280;70145;53.746;9.970;2023-06-10T06:34:26;101653.81;;;16.11;56.36
80749;BME280;70145;53.746;9.970;2023-06-10T06:36:51;101651.88;;;16.13;56.29
80749;BME280;70145;53.746;9.970;2023-06-10T06:39:16;101654.75;;;16.21;55.84
80749;BME280;70145;53.746;9.970;2023-06-10T06:41:41;101661.38;;;16.28;55.81
80749;BME280;70145;53.746;9.970;2023-06-10T06:44:07;101656.31;;;16.35;55.89
80749;BME280;70145;53.746;9.970;2023-06-10T06:46:32;101647.91;;;16.38;55.61
80749;BME280;70145;53.746;9.970;2023-06-10T06:48:57;101657.81;;;16.48;55.32
80749;BME280;70145;53.746;9.970;2023-06-10T06:51:23;101653.72;;;16.54;55.13
80749;BME280;70145;53.746;9.970;2023-06-10T06:53:48;101655.63;;;16.63;55.12
80749;BME280;70145;53.746;9.970;2023-06-10T06:56:15;101653.84;;;16.73;55.34
80749;BME280;70145;53.746;9.970;2023-06-10T06:58:41;101661.28;;;16.80;55.05
80749;BME280;70145;53.746;9.970;2023-06-10T07:01:07;101664.91;;;16.90;54.84
80749;BME280;70145;53.746;9.970;2023-06-10T07:03:32;101670.69;;;16.97;54.69
80749;BME280;70145;53.746;9.970;2023-06-10T07:05:57;101668.28;;;17.03;54.47
80749;BME280;70145;53.746;9.970;2023-06-10T07:08:23;101655.91;;;17.10;54.36
80749;BME280;70145;53.746;9.970;2023-06-10T07:10:48;101664.19;;;17.18;54.63
80749;BME280;70145;53.746;9.970;2023-06-10T07:13:14;101662.78;;;17.24;54.27
80749;BME280;70145;53.746;9.970;2023-06-10T07:15:39;101665.34;;;17.25;54.10
80749;BME280;70145;53.746;9.970;2023-06-10T07:18:05;101661.81;;;17.34;53.85
80749;BME280;70145;53.746;9.970;2023-06-10T07:20:30;101665.28;;;17.46;53.74
80749;BME280;70145;53.746;9.970;2023-06-10T07:22:56;101660.88;;;17.54;53.77
80749;BME280;70145;53.746;9.970;2023-06-10T07:25:21;101668.91;;;17.65;53.71
80749;BME280;70145;53.746;9.970;2023-06-10T07:27:46;101669.81;;;17.75;54.01
80749;BME280;70145;53.746;9.970;2023-06-10T07:30:12;101662.53;;;17.85;53.42
80749;BME280;70145;53.746;9.970;2023-06-10T07:32:38;101672.84;;;17.91;53.06
80749;BME280;70145;53.746;9.970;2023-06-10T07:35:05;101668.53;;;17.98;52.86
80749;BME280;70145;53.746;9.970;2023-06-10T07:37:31;101669.69;;;18.05;52.54
80749;BME280;70145;53.746;9.970;2023-06-10T07:39:56;101673.25;;;18.15;52.86
80749;BME280;70145;53.746;9.970;2023-06-10T07:42:22;101676.13;;;18.23;52.32
80749;BME280;70145;53.746;9.970;2023-06-10T07:44:47;101670.09;;;18.29;52.93
80749;BME280;70145;53.746;9.970;2023-06-10T07:47:12;101667.25;;;18.41;52.54
80749;BME280;70145;53.746;9.970;2023-06-10T07:49:38;101675.50;;;18.49;52.44
80749;BME280;70145;53.746;9.970;2023-06-10T07:52:03;101667.53;;;18.57;52.04
80749;BME280;70145;53.746;9.970;2023-06-10T07:54:29;101667.50;;;18.66;51.62
80749;BME280;70145;53.746;9.970;2023-06-10T07:56:54;101659.47;;;18.74;51.59
80749;BME280;70145;53.746;9.970;2023-06-10T07:59:19;101664.00;;;18.83;51.41
80749;BME280;70145;53.746;9.970;2023-06-10T08:01:45;101666.00;;;18.91;51.19
80749;BME280;70145;53.746;9.970;2023-06-10T08:04:10;101659.66;;;19.00;51.13
80749;BME280;70145;53.746;9.970;2023-06-10T08:06:36;101649.88;;;19.07;51.08
80749;BME280;70145;53.746;9.970;2023-06-10T08:09:02;101655.44;;;19.15;50.74
80749;BME280;70145;53.746;9.970;2023-06-10T08:11:28;101662.72;;;19.24;50.65
80749;BME280;70145;53.746;9.970;2023-06-10T08:13:55;101656.97;;;19.27;50.65
80749;BME280;70145;53.746;9.970;2023-06-10T08:16:20;101668.84;;;19.35;50.28
80749;BME280;70145;53.746;9.970;2023-06-10T08:18:45;101672.84;;;19.41;50.35
80749;BME280;70145;53.746;9.970;2023-06-10T08:21:11;101673.94;;;19.48;49.89
80749;BME280;70145;53.746;9.970;2023-06-10T08:23:36;101666.88;;;19.55;49.94
80749;BME280;70145;53.746;9.970;2023-06-10T08:26:04;101662.50;;;19.62;49.85
80749;BME280;70145;53.746;9.970;2023-06-10T08:28:30;101678.25;;;19.68;49.67
80749;BME280;70145;53.746;9.970;2023-06-10T08:30:58;101669.47;;;19.74;50.03
80749;BME280;70145;53.746;9.970;2023-06-10T08:33:23;101674.47;;;19.78;49.58
80749;BME280;70145;53.746;9.970;2023-06-10T08:35:48;101672.25;;;19.82;49.48
80749;BME280;70145;53.746;9.970;2023-06-10T08:38:14;101678.13;;;19.87;49.67
80749;BME280;70145;53.746;9.970;2023-06-10T08:40:39;101669.34;;;19.93;49.18
80749;BME280;70145;53.746;9.970;2023-06-10T08:43:06;101682.38;;;19.99;49.18
80749;BME280;70145;53.746;9.970;2023-06-10T08:45:35;101675.28;;;20.06;48.89
80749;BME280;70145;53.746;9.970;2023-06-10T08:48:02;101674.50;;;20.13;48.88
80749;BME280;70145;53.746;9.970;2023-06-10T08:50:33;101680.19;;;20.20;49.11
80749;BME280;70145;53.746;9.970;2023-06-10T08:53:00;101677.84;;;20.25;48.79
80749;BME280;70145;53.746;9.970;2023-06-10T08:55:35;101674.47;;;20.31;48.42
80749;BME280;70145;53.746;9.970;2023-06-10T08:58:01;101676.09;;;20.41;48.57
80749;BME280;70145;53.746;9.970;2023-06-10T09:00:28;101677.34;;;20.47;48.42
80749;BME280;70145;53.746;9.970;2023-06-10T09:02:58;101675.72;;;20.54;48.13
80749;BME280;70145;53.746;9.970;2023-06-10T09:05:24;101670.00;;;20.65;48.06
80749;BME280;70145;53.746;9.970;2023-06-10T09:07:52;101667.69;;;20.70;48.10
80749;BME280;70145;53.746;9.970;2023-06-10T09:10:17;101671.31;;;20.79;47.96
80749;BME280;70145;53.746;9.970;2023-06-10T09:12:43;101660.06;;;20.82;48.02
80749;BME280;70145;53.746;9.970;2023-06-10T09:15:08;101667.09;;;20.92;47.92
80749;BME280;70145;53.746;9.970;2023-06-10T09:17:34;101656.09;;;21.02;47.50
80749;BME280;70145;53.746;9.970;2023-06-10T09:20:02;101664.16;;;21.11;47.67
80749;BME280;70145;53.746;9.970;2023-06-10T09:22:28;101653.94;;;21.21;47.10
80749;BME280;70145;53.746;9.970;2023-06-10T09:25:02;101663.91;;;21.30;47.17
80749;BME280;70145;53.746;9.970;2023-06-10T09:27:30;101659.69;;;21.36;47.12
80749;BME280;70145;53.746;9.970;2023-06-10T09:29:56;101662.28;;;21.45;46.67
80749;BME280;70145;53.746;9.970;2023-06-10T09:32:23;101658.03;;;21.51;46.83
80749;BME280;70145;53.746;9.970;2023-06-10T09:34:49;101669.69;;;21.61;46.53
80749;BME280;70145;53.746;9.970;2023-06-10T09:37:25;101659.28;;;21.64;46.38
80749;BME280;70145;53.746;9.970;2023-06-10T09:40:07;101667.81;;;21.69;46.33
80749;BME280;70145;53.746;9.970;2023-06-10T09:42:34;101661.34;;;21.78;46.53
80749;BME280;70145;53.746;9.970;2023-06-10T09:45:01;101657.78;;;21.86;46.16
80749;BME280;70145;53.746;9.970;2023-06-10T09:47:26;101655.06;;;21.94;46.17
80749;BME280;70145;53.746;9.970;2023-06-10T09:49:52;101657.31;;;21.98;45.74
80749;BME280;70145;53.746;9.970;2023-06-10T09:52:23;101662.78;;;22.06;45.92
80749;BME280;70145;53.746;9.970;2023-06-10T09:54:51;101658.38;;;22.13;45.61
80749;BME280;70145;53.746;9.970;2023-06-10T09:57:17;101653.94;;;22.20;45.64
80749;BME280;70145;53.746;9.970;2023-06-10T09:59:43;101661.47;;;22.26;45.33
80749;BME280;70145;53.746;9.970;2023-06-10T10:02:17;101655.97;;;22.34;45.32
80749;BME280;70145;53.746;9.970;2023-06-10T10:04:43;101650.00;;;22.39;45.27
80749;BME280;70145;53.746;9.970;2023-06-10T10:07:09;101657.69;;;22.43;45.20
80749;BME280;70145;53.746;9.970;2023-06-10T10:09:39;101655.66;;;22.45;45.11
80749;BME280;70145;53.746;9.970;2023-06-10T10:12:09;101657.34;;;22.46;44.97
80749;BME280;70145;53.746;9.970;2023-06-10T10:14:36;101649.81;;;22.57;45.23
80749;BME280;70145;53.746;9.970;2023-06-10T10:17:10;101656.16;;;22.65;44.93
80749;BME280;70145;53.746;9.970;2023-06-10T10:19:43;101658.03;;;22.73;44.83
80749;BME280;70145;53.746;9.970;2023-06-10T10:22:36;101654.59;;;22.79;44.62
80749;BME280;70145;53.746;9.970;2023-06-10T10:25:02;101661.38;;;22.91;44.64
80749;BME280;70145;53.746;9.970;2023-06-10T10:27:40;101672.50;;;22.97;44.59
80749;BME280;70145;53.746;9.970;2023-06-10T10:30:08;101662.06;;;23.01;43.81
80749;BME280;70145;53.746;9.970;2023-06-10T10:33:28;101669.56;;;23.07;43.87
80749;BME280;70145;53.746;9.970;2023-06-10T10:35:56;101662.38;;;23.14;43.94
80749;BME280;70145;53.746;9.970;2023-06-10T10:38:22;101661.47;;;23.21;43.74
80749;BME280;70145;53.746;9.970;2023-06-10T10:40:48;101655.13;;;23.29;43.55
80749;BME280;70145;53.746;9.970;2023-06-10T10:43:14;101651.00;;;23.33;43.57
80749;BME280;70145;53.746;9.970;2023-06-10T10:45:40;101659.38;;;23.39;43.46
80749;BME280;70145;53.746;9.970;2023-06-10T10:48:08;101653.84;;;23.47;43.21
80749;BME280;70145;53.746;9.970;2023-06-10T10:50:37;101658.44;;;23.55;42.94
80749;BME280;70145;53.746;9.970;2023-06-10T10:53:04;101649.50;;;23.61;42.93
80749;BME280;70145;53.746;9.970;2023-06-10T10:55:29;101659.75;;;23.67;42.69
80749;BME280;70145;53.746;9.970;2023-06-10T10:57:59;101657.81;;;23.75;42.61
80749;BME280;70145;53.746;9.970;2023-06-10T11:00:35;101657.28;;;23.80;42.50
80749;BME280;70145;53.746;9.970;2023-06-10T11:03:06;101657.25;;;23.88;42.59
80749;BME280;70145;53.746;9.970;2023-06-10T11:05:35;101656.50;;;23.94;42.35
80749;BME280;70145;53.746;9.970;2023-06-10T11:08:01;101654.09;;;23.99;41.93
80749;BME280;70145;53.746;9.970;2023-06-10T11:10:37;101659.50;;;24.07;41.94
80749;BME280;70145;53.746;9.970;2023-06-10T11:13:10;101654.63;;;24.17;41.98
80749;BME280;70145;53.746;9.970;2023-06-10T11:15:42;101652.84;;;24.24;41.60
80749;BME280;70145;53.746;9.970;2023-06-10T11:23:41;101651.00;;;24.47;41.67
80749;BME280;70145;53.746;9.970;2023-06-10T11:29:06;101641.81;;;24.69;41.52
80749;BME280;70145;53.746;9.970;2023-06-10T11:31:38;101650.00;;;24.77;41.44
80749;BME280;70145;53.746;9.970;2023-06-10T11:34:05;101649.34;;;24.90;41.66
80749;BME280;70145;53.746;9.970;2023-06-10T11:36:33;101648.22;;;24.99;41.34
80749;BME280;70145;53.746;9.970;2023-06-10T11:39:00;101639.88;;;25.07;40.90
80749;BME280;70145;53.746;9.970;2023-06-10T11:41:27;101649.69;;;25.09;40.69
80749;BME280;70145;53.746;9.970;2023-06-10T11:43:56;101647.28;;;25.21;40.64
80749;BME280;70145;53.746;9.970;2023-06-10T11:46:22;101633.38;;;25.22;40.69
80749;BME280;70145;53.746;9.970;2023-06-10T11:48:55;101641.50;;;25.30;40.09
80749;BME280;70145;53.746;9.970;2023-06-10T11:51:20;101634.56;;;25.34;40.52
80749;BME280;70145;53.746;9.970;2023-06-10T11:53:47;101645.00;;;25.39;40.25
80749;BME280;70145;53.746;9.970;2023-06-10T11:56:13;101643.34;;;25.44;40.14
80749;BME280;70145;53.746;9.970;2023-06-10T11:58:43;101639.84;;;25.50;39.75
80749;BME280;70145;53.746;9.970;2023-06-10T12:01:10;101634.63;;;25.55;39.44
80749;BME280;70145;53.746;9.970;2023-06-10T12:03:36;101638.25;;;25.56;39.27
80749;BME280;70145;53.746;9.970;2023-06-10T12:06:05;101638.06;;;25.57;39.46
80749;BME280;70145;53.746;9.970;2023-06-10T12:08:31;101637.28;;;25.63;38.98
80749;BME280;70145;53.746;9.970;2023-06-10T12:10:57;101620.00;;;25.69;39.80
80749;BME280;70145;53.746;9.970;2023-06-10T12:13:23;101633.28;;;25.80;39.23
80749;BME280;70145;53.746;9.970;2023-06-10T12:15:49;101632.94;;;25.90;39.05
80749;BME280;70145;53.746;9.970;2023-06-10T12:18:16;101626.28;;;25.99;39.22
80749;BME280;70145;53.746;9.970;2023-06-10T12:20:43;101632.88;;;26.04;38.75
80749;BME280;70145;53.746;9.970;2023-06-10T12:23:09;101631.91;;;26.12;38.54
80749;BME280;70145;53.746;9.970;2023-06-10T12:25:35;101628.56;;;26.16;38.51
80749;BME280;70145;53.746;9.970;2023-06-10T12:28:02;101626.09;;;26.21;38.08
80749;BME280;70145;53.746;9.970;2023-06-10T12:30:28;101625.28;;;26.27;38.61
80749;BME280;70145;53.746;9.970;2023-06-10T12:32:54;101612.84;;;26.31;38.09
80749;BME280;70145;53.746;9.970;2023-06-10T12:35:27;101615.19;;;26.34;37.87
80749;BME280;70145;53.746;9.970;2023-06-10T12:40:32;101608.75;;;26.48;38.23
80749;BME280;70145;53.746;9.970;2023-06-10T12:42:58;101607.53;;;26.57;37.96
80749;BME280;70145;53.746;9.970;2023-06-10T12:45:37;101610.09;;;26.59;37.83
80749;BME280;70145;53.746;9.970;2023-06-10T12:48:18;101602.31;;;26.69;37.67
80749;BME280;70145;53.746;9.970;2023-06-10T12:50:46;101611.25;;;26.71;37.86
80749;BME280;70145;53.746;9.970;2023-06-10T12:53:12;101592.88;;;26.78;37.70
80749;BME280;70145;53.746;9.970;2023-06-10T12:55:38;101599.06;;;26.87;37.60
80749;BME280;70145;53.746;9.970;2023-06-10T12:58:03;101597.44;;;26.92;36.86
80749;BME280;70145;53.746;9.970;2023-06-10T13:00:29;101607.81;;;26.90;37.01
80749;BME280;70145;53.746;9.970;2023-06-10T13:03:00;101609.09;;;26.94;36.99